Bretagne — FNBR — position and weather

sailwx.info

Track history (hours):
 
Tides and Currents Weather Stations Pressure Air Temp Water Temp Dewpoint Dewpoint Depression Visibility Wind Speed Wind Dir Waves Ship Positions

Bretagne

Operator: Brittany Ferries

Last reported at 2017-Jul-24 02:59 UTC. Time now 2017-Jul-24 08:28 UTC.
Position N 49°18' W 002°21'.

Length 151 m; beam 27 m.

Type: Other ship. MMSI: 227286000.

Date/timePositionNaut miles runAvg speedWind from/ knotsBaromVisibWave heightAir tempDewpointWater temp
2017-Jul-24 02:59N 49°18' W 002°21'612.9
2017-Jul-24 02:29N 49°24' W 002°16'813.5
2017-Jul-24 01:52N 49°31' W 002°11'1715.4
2017-Jul-24 00:45N 49°47' W 001°60'415.0
2017-Jul-24 00:30N 49°49' W 001°56'714.8
2017-Jul-24 00:01N 49°55' W 001°48'917.2
2017-Jul-23 23:31N 50°02' W 001°41'816.6
2017-Jul-23 23:01N 50°10' W 001°36'815.6
2017-Jul-23 22:30N 50°16' W 001°29'714.2
2017-Jul-23 22:00N 50°22' W 001°23'1013.6
2017-Jul-23 21:18N 50°30' W 001°14'413.4
2017-Jul-23 21:01N 50°33' W 001°11'612.7
2017-Jul-23 20:30N 50°38' W 001°06'510.7
2017-Jul-23 20:00N 50°44' W 001°03'510.7
2017-Jul-23 19:30N 50°49' W 001°06'0 0.9
2017-Jul-23 19:00N 50°49' W 001°06'0 0.0
2017-Jul-23 18:30N 50°49' W 001°06'0 0.0
2017-Jul-23 18:00N 50°49' W 001°06'0 0.0
2017-Jul-23 17:30N 50°49' W 001°06'1 1.9
2017-Jul-23 17:00N 50°48' W 001°07'612.5
2017-Jul-23 16:30N 50°43' W 001°01'712.7
2017-Jul-23 15:58N 50°37' W 001°04'818.1
2017-Jul-23 15:30N 50°30' W 001°13'918.4
2017-Jul-23 15:00N 50°23' W 001°21'918.1
2017-Jul-23 14:30N 50°15' W 001°29'917.6
2017-Jul-23 14:00N 50°08' W 001°37'817.0
2017-Jul-23 13:30N 50°01' W 001°45'816.6
2017-Jul-23 13:01N 49°55' W 001°53'816.4
2017-Jul-23 12:31N 49°48' W 002°00'19 1.7
2017-Jul-23 01:41N 49°31' W 002°11'213.6
2017-Jul-23 01:30N 49°33' W 002°10'1414.3
2017-Jul-23 00:30N 49°47' W 002°02'817.1
2017-Jul-23 00:01N 49°55' W 002°00'816.8
2017-Jul-22 23:31N 50°02' W 001°52'816.8
2017-Jul-22 23:01N 50°08' W 001°43'815.5
2017-Jul-22 22:30N 50°14' W 001°35'2014.9
2017-Jul-22 21:12N 50°29' W 001°16'314.0
2017-Jul-22 21:00N 50°31' W 001°13'713.6
2017-Jul-22 20:31N 50°37' W 001°08'612.4
2017-Jul-22 20:01N 50°42' W 001°03'612.7
2017-Jul-22 19:30N 50°48' W 001°07'1 2.1
2017-Jul-22 18:58N 50°49' W 001°06'0 0.0
2017-Jul-22 18:28N 50°49' W 001°06'0 0.0
2017-Jul-22 17:58N 50°49' W 001°06'0 0.0
2017-Jul-22 17:28N 50°49' W 001°06'1 2.0
2017-Jul-22 17:00N 50°48' W 001°07'612.6
2017-Jul-22 16:30N 50°42' W 001°03'915.0
2017-Jul-22 15:55N 50°35' W 001°10'1519.6
2017-Jul-22 15:09N 50°22' W 001°23'319.2
2017-Jul-22 15:00N 50°20' W 001°25'1818.2
2017-Jul-22 14:01N 50°05' W 001°42'917.3
2017-Jul-22 13:30N 49°58' W 001°51'917.5
2017-Jul-22 13:00N 49°51' W 001°57'21 1.9
2017-Jul-22 01:39N 49°31' W 002°10'213.3
2017-Jul-22 01:30N 49°33' W 002°09'1413.7
2017-Jul-22 00:27N 49°47' W 002°02'613.7
2017-Jul-22 00:00N 49°51' W 001°56'715.0
2017-Jul-21 23:30N 49°58' W 001°49'917.3
2017-Jul-21 23:00N 50°05' W 001°42'816.7
2017-Jul-21 22:30N 50°12' W 001°34'2215.8
2017-Jul-21 21:07N 50°30' W 001°15'214.9
2017-Jul-21 21:00N 50°31' W 001°13'715.0
2017-Jul-21 20:30N 50°37' W 001°07'612.7
2017-Jul-21 20:01N 50°43' W 001°02'612.1
2017-Jul-21 19:30N 50°48' W 001°07'1 1.8
2017-Jul-21 19:00N 50°49' W 001°06'0 0.0
2017-Jul-21 18:30N 50°49' W 001°06'0 0.0
2017-Jul-21 17:59N 50°49' W 001°06'0 0.0
2017-Jul-21 17:30N 50°49' W 001°06'1 1.1
2017-Jul-21 17:00N 50°49' W 001°07'5 9.1
2017-Jul-21 16:30N 50°44' W 001°04'5 9.1
2017-Jul-21 16:00N 50°40' W 001°04'1018.5
2017-Jul-21 15:28N 50°32' W 001°13'919.5
2017-Jul-21 15:01N 50°25' W 001°23'1018.9
2017-Jul-21 14:30N 50°17' W 001°30'918.7
2017-Jul-21 14:01N 50°09' W 001°38'918.5
2017-Jul-21 13:31N 50°01' W 001°45'918.2
2017-Jul-21 13:00N 49°53' W 001°53'25 2.2
2017-Jul-21 01:55N 49°31' W 002°11'1712.2
2017-Jul-21 00:33N 49°46' W 002°01'111.8
2017-Jul-21 00:30N 49°47' W 002°00'715.0
2017-Jul-21 00:01N 49°53' W 001°55'815.3
2017-Jul-20 23:30N 50°00' W 001°49'815.7
2017-Jul-20 23:01N 50°06' W 001°42'815.9
2017-Jul-20 22:30N 50°13' W 001°34'2216.2
2017-Jul-20 21:10N 50°30' W 001°15'316.2
2017-Jul-20 20:59N 50°33' W 001°12'815.6
2017-Jul-20 20:30N 50°39' W 001°05'611.6
2017-Jul-20 20:01N 50°45' W 001°05'4 8.3
2017-Jul-20 19:30N 50°49' W 001°06'0 0.9
2017-Jul-20 18:59N 50°49' W 001°06'0 0.0
2017-Jul-20 18:30N 50°49' W 001°06'0 0.0
2017-Jul-20 18:00N 50°49' W 001°06'0 0.0
2017-Jul-20 17:30N 50°49' W 001°06'0 0.0
2017-Jul-20 17:00N 50°49' W 001°06'2 4.6
2017-Jul-20 16:30N 50°46' W 001°06'612.3
2017-Jul-20 16:00N 50°40' W 001°03'816.4
2017-Jul-20 15:30N 50°34' W 001°11'1517.1
2017-Jul-20 14:39N 50°22' W 001°24'1116.4
2017-Jul-20 14:00N 50°13' W 001°32'917.2
2017-Jul-20 13:30N 50°05' W 001°38'917.5
2017-Jul-20 13:00N 49°58' W 001°47'917.3
2017-Jul-20 12:31N 49°52' W 001°56'25 2.6
2017-Jul-20 02:54N 49°29' W 002°13'1814.6
2017-Jul-20 01:38N 49°46' W 002°01'218.0
2017-Jul-20 01:30N 49°48' W 001°59'1019.2
2017-Jul-20 01:00N 49°56' W 001°51'1020.1
2017-Jul-20 00:30N 50°04' W 001°43'1020.5
2017-Jul-20 00:00N 50°13' W 001°33'1920.7
2017-Jul-19 23:06N 50°28' W 001°16'320.9
2017-Jul-19 22:57N 50°30' W 001°13'921.1
2017-Jul-19 22:30N 50°38' W 001°05'612.8
2017-Jul-19 22:00N 50°45' W 001°05'4 8.1
2017-Jul-19 21:31N 50°49' W 001°06'0 0.0
2017-Jul-19 21:00N 50°49' W 001°06'0 0.0
2017-Jul-19 20:30N 50°49' W 001°06'0 0.0
2017-Jul-19 20:00N 50°49' W 001°06'0 0.0
2017-Jul-19 19:30N 50°49' W 001°06'0 0.0
2017-Jul-19 19:00N 50°49' W 001°06'0 0.0
2017-Jul-19 18:30N 50°49' W 001°06'0 0.0
2017-Jul-19 18:00N 50°49' W 001°06'0 0.0
2017-Jul-19 17:30N 50°49' W 001°06'0 0.8
2017-Jul-19 17:00N 50°49' W 001°06'510.3
2017-Jul-19 16:30N 50°44' W 001°04'714.2
2017-Jul-19 15:59N 50°37' W 001°08'1721.9
2017-Jul-19 15:13N 50°23' W 001°23'421.5
2017-Jul-19 15:01N 50°20' W 001°28'1121.4
2017-Jul-19 14:31N 50°11' W 001°37'1121.2
2017-Jul-19 14:00N 50°01' W 001°45'1121.1
2017-Jul-19 13:30N 49°53' W 001°54'1221.7
2017-Jul-19 12:57N 49°43' W 002°04'64 9.8
2017-Jul-19 06:25N 48°38' W 002°02'2 3.5
2017-Jul-19 05:44N 48°40' W 002°05'5312.6
2017-Jul-19 01:31N 49°33' W 002°10'0 9.7
2017-Jul-19 01:29N 49°33' W 002°10'1410.9
2017-Jul-19 00:14N 49°46' W 002°01'314.7
2017-Jul-19 00:01N 49°48' W 001°58'815.9
2017-Jul-18 23:30N 49°54' W 001°50'816.8
2017-Jul-18 23:00N 50°01' W 001°43'917.3
2017-Jul-18 22:31N 50°09' W 001°37'816.6
2017-Jul-18 22:00N 50°16' W 001°30'1716.3
2017-Jul-18 20:57N 50°30' W 001°15'717.0
2017-Jul-18 20:30N 50°36' W 001°08'713.9
2017-Jul-18 20:01N 50°42' W 001°03'612.6
2017-Jul-18 19:30N 50°48' W 001°07'1 1.8
2017-Jul-18 19:00N 50°49' W 001°06'0 0.0
2017-Jul-18 18:30N 50°49' W 001°06'0 0.0
2017-Jul-18 17:59N 50°49' W 001°06'0 0.0
2017-Jul-18 17:30N 50°49' W 001°06'0 0.0
2017-Jul-18 17:00N 50°49' W 001°06'4 7.4
2017-Jul-18 16:31N 50°45' W 001°05'612.2
2017-Jul-18 16:00N 50°39' W 001°05'1318.9
2017-Jul-18 15:20N 50°28' W 001°17'618.1
2017-Jul-18 15:00N 50°23' W 001°21'1717.5
2017-Jul-18 14:01N 50°09' W 001°36'917.6
2017-Jul-18 13:31N 50°01' W 001°44'917.9
2017-Jul-18 13:00N 49°54' W 001°52'1820.8
2017-Jul-18 12:07N 49°38' W 002°07'920.4
2017-Jul-18 11:39N 49°30' W 002°13'419.5
2017-Jul-18 11:27N 49°26' W 002°15'1019.4
2017-Jul-18 10:57N 49°17' W 002°22'1118.8
2017-Jul-18 10:21N 49°06' W 002°22'717.7
2017-Jul-18 09:57N 48°59' W 002°22'2116.6
2017-Jul-18 08:40N 48°40' W 002°05'3 4.5
2017-Jul-18 07:58N 48°38' W 002°02'0 0.0
2017-Jul-18 07:22N 48°38' W 002°02'0 0.0
2017-Jul-18 06:58N 48°38' W 002°02'34 9.6
2017-Jul-18 03:24N 49°10' W 002°23'614.9
2017-Jul-18 02:59N 49°16' W 002°22'714.5
2017-Jul-18 02:28N 49°23' W 002°17'613.7
2017-Jul-18 02:00N 49°29' W 002°13'713.7
2017-Jul-18 01:30N 49°35' W 002°09'612.7
2017-Jul-18 01:00N 49°41' W 002°05'611.2
2017-Jul-18 00:30N 49°45' W 002°00'713.1
2017-Jul-18 00:00N 49°51' W 001°55'714.7
2017-Jul-17 23:30N 49°57' W 001°49'815.5
2017-Jul-17 23:00N 50°04' W 001°44'816.0
2017-Jul-17 22:30N 50°11' W 001°36'816.3
2017-Jul-17 22:00N 50°17' W 001°29'816.6
2017-Jul-17 21:30N 50°24' W 001°21'816.7
2017-Jul-17 21:00N 50°31' W 001°13'917.3
2017-Jul-17 20:30N 50°37' W 001°04'612.7
2017-Jul-17 20:00N 50°44' W 001°03'510.5
2017-Jul-17 19:30N 50°48' W 001°07'1 1.6
2017-Jul-17 18:58N 50°49' W 001°06'0 0.0
2017-Jul-17 18:30N 50°49' W 001°06'0 0.0
2017-Jul-17 17:58N 50°49' W 001°06'0 0.0
2017-Jul-17 17:31N 50°49' W 001°06'3 5.4
2017-Jul-17 17:01N 50°46' W 001°05'814.9
2017-Jul-17 16:30N 50°38' W 001°06'918.2
2017-Jul-17 16:00N 50°31' W 001°14'918.6
2017-Jul-17 15:30N 50°23' W 001°21'1019.0
2017-Jul-17 15:00N 50°15' W 001°29'1019.3
2017-Jul-17 14:30N 50°07' W 001°37'1019.4
2017-Jul-17 14:00N 49°59' W 001°45'1019.9
2017-Jul-17 13:30N 49°51' W 001°55'1320.3
2017-Jul-17 12:53N 49°39' W 002°01'4317.9
2017-Jul-17 10:29N 48°56' W 001°58'17 4.7
2017-Jul-17 06:55N 48°40' W 002°04'715.1
2017-Jul-17 06:28N 48°45' W 002°09'510.6
2017-Jul-17 05:58N 48°51' W 002°09'1012.7
2017-Jul-17 05:12N 48°56' W 002°21'715.5
2017-Jul-17 04:43N 49°04' W 002°22'2415.1
2017-Jul-17 03:09N 49°27' W 002°13'215.0
2017-Jul-17 03:00N 49°29' W 002°12'1414.6
2017-Jul-17 02:01N 49°42' W 002°03'112.7
2017-Jul-17 01:57N 49°43' W 002°03'612.7
2017-Jul-17 01:30N 49°48' W 001°58'612.9
2017-Jul-17 01:00N 49°53' W 001°53'713.7
2017-Jul-17 00:30N 49°59' W 001°47'612.7
2017-Jul-17 00:00N 50°04' W 001°41'713.1
2017-Jul-16 23:30N 50°09' W 001°35'612.7
2017-Jul-16 23:00N 50°14' W 001°29'714.5
2017-Jul-16 22:30N 50°20' W 001°22'814.4
2017-Jul-16 21:57N 50°26' W 001°15'715.4
2017-Jul-16 21:30N 50°32' W 001°08'815.6
2017-Jul-16 21:01N 50°38' W 001°01'611.3
2017-Jul-16 20:31N 50°44' W 001°02'611.2
2017-Jul-16 20:01N 50°48' W 001°07'1 1.6
2017-Jul-16 19:29N 50°49' W 001°06'0 0.0
2017-Jul-16 18:58N 50°49' W 001°06'0 0.0
2017-Jul-16 18:29N 50°49' W 001°06'0 0.0
2017-Jul-16 17:58N 50°49' W 001°06'0 0.0
2017-Jul-16 17:28N 50°49' W 001°06'0 0.2
2017-Jul-16 17:01N 50°49' W 001°06'510.9
2017-Jul-16 16:31N 50°43' W 001°03'915.0
2017-Jul-16 15:55N 50°35' W 001°09'717.5
2017-Jul-16 15:30N 50°29' W 001°15'917.8
2017-Jul-16 15:00N 50°22' W 001°23'918.2
2017-Jul-16 14:31N 50°14' W 001°30'918.3
2017-Jul-16 14:01N 50°06' W 001°36'918.7
2017-Jul-16 13:31N 49°58' W 001°43'1019.4
2017-Jul-16 13:01N 49°50' W 001°53'1320.5
2017-Jul-16 12:22N 49°38' W 002°01'5619.1
2017-Jul-16 09:27N 48°42' W 002°05'5 1.9
2017-Jul-16 06:59N 48°38' W 002°02'0 0.3
2017-Jul-16 06:28N 48°39' W 002°02'715.1
2017-Jul-16 06:01N 48°44' W 002°08'815.8
2017-Jul-16 05:31N 48°50' W 002°16'713.8
2017-Jul-16 05:00N 48°56' W 002°21'612.2
2017-Jul-16 04:30N 49°02' W 002°22'712.5
2017-Jul-16 03:54N 49°10' W 002°22'712.1
2017-Jul-16 03:22N 49°16' W 002°21'612.3
2017-Jul-16 02:54N 49°22' W 002°19'614.6
2017-Jul-16 02:30N 49°27' W 002°14'714.8
2017-Jul-16 02:00N 49°34' W 002°10'1413.5
2017-Jul-16 00:59N 49°46' W 002°00'611.5
2017-Jul-16 00:31N 49°50' W 001°55'612.2
2017-Jul-16 00:00N 49°54' W 001°48'713.2
2017-Jul-15 23:31N 50°00' W 001°44'713.0
2017-Jul-15 23:00N 50°06' W 001°38'713.7
2017-Jul-15 22:30N 50°11' W 001°31'814.2
2017-Jul-15 21:56N 50°18' W 001°24'714.6
2017-Jul-15 21:29N 50°23' W 001°18'714.7
2017-Jul-15 21:01N 50°29' W 001°12'715.0
2017-Jul-15 20:31N 50°35' W 001°05'815.2
2017-Jul-15 20:01N 50°41' W 000°58'713.8
2017-Jul-15 19:30N 50°46' W 001°06'2 3.9
2017-Jul-15 18:55N 50°49' W 001°06'0 0.0
2017-Jul-15 18:28N 50°49' W 001°06'0 0.0
2017-Jul-15 17:58N 50°49' W 001°06'0 0.0
2017-Jul-15 17:28N 50°49' W 001°06'0 0.0
2017-Jul-15 17:00N 50°49' W 001°06'3 6.7
2017-Jul-15 16:30N 50°45' W 001°05'714.5
2017-Jul-15 16:00N 50°38' W 001°06'714.6
2017-Jul-15 15:31N 50°31' W 001°11'815.0
2017-Jul-15 15:00N 50°24' W 001°15'1616.3
2017-Jul-15 14:01N 50°11' W 001°29'917.6
2017-Jul-15 13:30N 50°04' W 001°38'917.8
2017-Jul-15 13:00N 49°57' W 001°45'918.8
2017-Jul-15 12:31N 49°49' W 001°54'1019.8
2017-Jul-15 12:00N 49°40' W 002°01'1020.3
2017-Jul-15 11:30N 49°30' W 001°59'1420.1
2017-Jul-15 10:49N 49°17' W 001°53'619.4
2017-Jul-15 10:30N 49°11' W 001°52'918.9
2017-Jul-15 10:01N 49°02' W 001°51'1020.2
2017-Jul-15 09:30N 48°53' W 001°59'1019.9
2017-Jul-15 09:01N 48°43' W 002°02'5 9.0
2017-Jul-15 08:29N 48°38' W 002°02'0 0.0
2017-Jul-15 07:56N 48°38' W 002°02'0 0.0
2017-Jul-15 07:29N 48°38' W 002°02'0 0.0
2017-Jul-15 06:59N 48°38' W 002°02'0 0.0
2017-Jul-15 06:29N 48°38' W 002°02'0 0.4
2017-Jul-15 06:00N 48°38' W 002°02'714.5
2017-Jul-15 05:30N 48°45' W 002°08'1119.9
2017-Jul-15 04:58N 48°53' W 002°19'713.8
2017-Jul-15 04:26N 48°60' W 002°22'612.5
2017-Jul-15 03:57N 49°06' W 002°23'712.7
2017-Jul-15 03:24N 49°13' W 002°22'613.0
2017-Jul-15 02:55N 49°19' W 002°21'815.8
2017-Jul-15 02:24N 49°26' W 002°15'2315.1
2017-Jul-15 00:54N 49°46' W 001°60'512.7
2017-Jul-15 00:30N 49°50' W 001°55'613.1
2017-Jul-15 00:00N 49°55' W 001°48'713.1
2017-Jul-14 23:31N 50°01' W 001°42'713.2
2017-Jul-14 23:00N 50°06' W 001°37'713.5
2017-Jul-14 22:30N 50°12' W 001°31'713.9
2017-Jul-14 22:00N 50°17' W 001°25'714.3
2017-Jul-14 21:30N 50°23' W 001°18'714.4
2017-Jul-14 21:01N 50°29' W 001°12'714.7
2017-Jul-14 20:31N 50°35' W 001°06'815.2
2017-Jul-14 20:01N 50°41' W 000°58'714.1
2017-Jul-14 19:30N 50°46' W 001°06'2 4.3
2017-Jul-14 18:59N 50°49' W 001°06'0 0.0
2017-Jul-14 18:29N 50°49' W 001°06'0 0.0
2017-Jul-14 17:59N 50°49' W 001°06'0 0.0
2017-Jul-14 17:29N 50°49' W 001°06'0 0.7
2017-Jul-14 17:01N 50°49' W 001°06'5 9.5
2017-Jul-14 16:31N 50°44' W 001°04'714.2
2017-Jul-14 16:00N 50°37' W 001°07'814.9
2017-Jul-14 15:30N 50°31' W 001°13'1015.4
2017-Jul-14 14:51N 50°22' W 001°20'515.9
2017-Jul-14 14:30N 50°17' W 001°24'816.1
2017-Jul-14 14:01N 50°10' W 001°31'816.4
2017-Jul-14 13:30N 50°03' W 001°38'816.8
2017-Jul-14 13:00N 49°56' W 001°45'917.5
2017-Jul-14 12:30N 49°49' W 001°53'1219.4
2017-Jul-14 11:53N 49°38' W 002°01'2519.4
2017-Jul-14 10:36N 49°15' W 001°51'420.3
2017-Jul-14 10:23N 49°10' W 001°52'1018.6
2017-Jul-14 09:51N 49°00' W 001°53'1219.9
2017-Jul-14 09:15N 48°49' W 002°01'519.7
2017-Jul-14 09:00N 48°45' W 002°02'6 2.1
2017-Jul-14 06:01N 48°39' W 002°02'0 1.3
2017-Jul-14 06:00N 48°38' W 002°02'714.0
2017-Jul-14 05:30N 48°44' W 002°08'917.4
2017-Jul-14 05:00N 48°51' W 002°17'816.3
2017-Jul-14 04:30N 48°58' W 002°22'  
Track history (hours):
 
Tides and Currents Weather Stations Pressure Air Temp Water Temp Dewpoint Dewpoint Depression Visibility Wind Speed Wind Dir Waves Ship Positions

Bretagne

Operator: Brittany Ferries

Last reported at 2017-Jul-24 02:59 UTC. Time now 2017-Jul-24 08:28 UTC.
Position N 49°18' W 002°21'.

Length 151 m; beam 27 m.

Type: Other ship. MMSI: 227286000.

Date/timePositionNaut miles runAvg speedWind from/ knotsBaromVisibWave heightAir tempDewpointWater temp
2017-Jul-24 02:59N 49°18' W 002°21'612.9
2017-Jul-24 02:29N 49°24' W 002°16'813.5
2017-Jul-24 01:52N 49°31' W 002°11'1715.4
2017-Jul-24 00:45N 49°47' W 001°60'415.0
2017-Jul-24 00:30N 49°49' W 001°56'714.8
2017-Jul-24 00:01N 49°55' W 001°48'917.2
2017-Jul-23 23:31N 50°02' W 001°41'816.6
2017-Jul-23 23:01N 50°10' W 001°36'815.6
2017-Jul-23 22:30N 50°16' W 001°29'714.2
2017-Jul-23 22:00N 50°22' W 001°23'1013.6
2017-Jul-23 21:18N 50°30' W 001°14'413.4
2017-Jul-23 21:01N 50°33' W 001°11'612.7
2017-Jul-23 20:30N 50°38' W 001°06'510.7
2017-Jul-23 20:00N 50°44' W 001°03'510.7
2017-Jul-23 19:30N 50°49' W 001°06'0 0.9
2017-Jul-23 19:00N 50°49' W 001°06'0 0.0
2017-Jul-23 18:30N 50°49' W 001°06'0 0.0
2017-Jul-23 18:00N 50°49' W 001°06'0 0.0
2017-Jul-23 17:30N 50°49' W 001°06'1 1.9
2017-Jul-23 17:00N 50°48' W 001°07'612.5
2017-Jul-23 16:30N 50°43' W 001°01'712.7
2017-Jul-23 15:58N 50°37' W 001°04'818.1
2017-Jul-23 15:30N 50°30' W 001°13'918.4
2017-Jul-23 15:00N 50°23' W 001°21'918.1
2017-Jul-23 14:30N 50°15' W 001°29'917.6
2017-Jul-23 14:00N 50°08' W 001°37'817.0
2017-Jul-23 13:30N 50°01' W 001°45'816.6
2017-Jul-23 13:01N 49°55' W 001°53'816.4
2017-Jul-23 12:31N 49°48' W 002°00'19 1.7
2017-Jul-23 01:41N 49°31' W 002°11'213.6
2017-Jul-23 01:30N 49°33' W 002°10'1414.3
2017-Jul-23 00:30N 49°47' W 002°02'817.1
2017-Jul-23 00:01N 49°55' W 002°00'816.8
2017-Jul-22 23:31N 50°02' W 001°52'816.8
2017-Jul-22 23:01N 50°08' W 001°43'815.5
2017-Jul-22 22:30N 50°14' W 001°35'2014.9
2017-Jul-22 21:12N 50°29' W 001°16'314.0
2017-Jul-22 21:00N 50°31' W 001°13'713.6
2017-Jul-22 20:31N 50°37' W 001°08'612.4
2017-Jul-22 20:01N 50°42' W 001°03'612.7
2017-Jul-22 19:30N 50°48' W 001°07'1 2.1
2017-Jul-22 18:58N 50°49' W 001°06'0 0.0
2017-Jul-22 18:28N 50°49' W 001°06'0 0.0
2017-Jul-22 17:58N 50°49' W 001°06'0 0.0
2017-Jul-22 17:28N 50°49' W 001°06'1 2.0
2017-Jul-22 17:00N 50°48' W 001°07'612.6
2017-Jul-22 16:30N 50°42' W 001°03'915.0
2017-Jul-22 15:55N 50°35' W 001°10'1519.6
2017-Jul-22 15:09N 50°22' W 001°23'319.2
2017-Jul-22 15:00N 50°20' W 001°25'1818.2
2017-Jul-22 14:01N 50°05' W 001°42'917.3
2017-Jul-22 13:30N 49°58' W 001°51'917.5
2017-Jul-22 13:00N 49°51' W 001°57'21 1.9
2017-Jul-22 01:39N 49°31' W 002°10'213.3
2017-Jul-22 01:30N 49°33' W 002°09'1413.7
2017-Jul-22 00:27N 49°47' W 002°02'613.7
2017-Jul-22 00:00N 49°51' W 001°56'715.0
2017-Jul-21 23:30N 49°58' W 001°49'917.3
2017-Jul-21 23:00N 50°05' W 001°42'816.7
2017-Jul-21 22:30N 50°12' W 001°34'2215.8
2017-Jul-21 21:07N 50°30' W 001°15'214.9
2017-Jul-21 21:00N 50°31' W 001°13'715.0
2017-Jul-21 20:30N 50°37' W 001°07'612.7
2017-Jul-21 20:01N 50°43' W 001°02'612.1
2017-Jul-21 19:30N 50°48' W 001°07'1 1.8
2017-Jul-21 19:00N 50°49' W 001°06'0 0.0
2017-Jul-21 18:30N 50°49' W 001°06'0 0.0
2017-Jul-21 17:59N 50°49' W 001°06'0 0.0
2017-Jul-21 17:30N 50°49' W 001°06'1 1.1
2017-Jul-21 17:00N 50°49' W 001°07'5 9.1
2017-Jul-21 16:30N 50°44' W 001°04'5 9.1
2017-Jul-21 16:00N 50°40' W 001°04'1018.5
2017-Jul-21 15:28N 50°32' W 001°13'919.5
2017-Jul-21 15:01N 50°25' W 001°23'1018.9
2017-Jul-21 14:30N 50°17' W 001°30'918.7
2017-Jul-21 14:01N 50°09' W 001°38'918.5
2017-Jul-21 13:31N 50°01' W 001°45'918.2
2017-Jul-21 13:00N 49°53' W 001°53'25 2.2
2017-Jul-21 01:55N 49°31' W 002°11'1712.2
2017-Jul-21 00:33N 49°46' W 002°01'111.8
2017-Jul-21 00:30N 49°47' W 002°00'715.0
2017-Jul-21 00:01N 49°53' W 001°55'815.3
2017-Jul-20 23:30N 50°00' W 001°49'815.7
2017-Jul-20 23:01N 50°06' W 001°42'815.9
2017-Jul-20 22:30N 50°13' W 001°34'2216.2
2017-Jul-20 21:10N 50°30' W 001°15'316.2
2017-Jul-20 20:59N 50°33' W 001°12'815.6
2017-Jul-20 20:30N 50°39' W 001°05'611.6
2017-Jul-20 20:01N 50°45' W 001°05'4 8.3
2017-Jul-20 19:30N 50°49' W 001°06'0 0.9
2017-Jul-20 18:59N 50°49' W 001°06'0 0.0
2017-Jul-20 18:30N 50°49' W 001°06'0 0.0
2017-Jul-20 18:00N 50°49' W 001°06'0 0.0
2017-Jul-20 17:30N 50°49' W 001°06'0 0.0
2017-Jul-20 17:00N 50°49' W 001°06'2 4.6
2017-Jul-20 16:30N 50°46' W 001°06'612.3
2017-Jul-20 16:00N 50°40' W 001°03'816.4
2017-Jul-20 15:30N 50°34' W 001°11'1517.1
2017-Jul-20 14:39N 50°22' W 001°24'1116.4
2017-Jul-20 14:00N 50°13' W 001°32'917.2
2017-Jul-20 13:30N 50°05' W 001°38'917.5
2017-Jul-20 13:00N 49°58' W 001°47'917.3
2017-Jul-20 12:31N 49°52' W 001°56'25 2.6
2017-Jul-20 02:54N 49°29' W 002°13'1814.6
2017-Jul-20 01:38N 49°46' W 002°01'218.0
2017-Jul-20 01:30N 49°48' W 001°59'1019.2
2017-Jul-20 01:00N 49°56' W 001°51'1020.1
2017-Jul-20 00:30N 50°04' W 001°43'1020.5
2017-Jul-20 00:00N 50°13' W 001°33'1920.7
2017-Jul-19 23:06N 50°28' W 001°16'320.9
2017-Jul-19 22:57N 50°30' W 001°13'921.1
2017-Jul-19 22:30N 50°38' W 001°05'612.8
2017-Jul-19 22:00N 50°45' W 001°05'4 8.1
2017-Jul-19 21:31N 50°49' W 001°06'0 0.0
2017-Jul-19 21:00N 50°49' W 001°06'0 0.0
2017-Jul-19 20:30N 50°49' W 001°06'0 0.0
2017-Jul-19 20:00N 50°49' W 001°06'0 0.0
2017-Jul-19 19:30N 50°49' W 001°06'0 0.0
2017-Jul-19 19:00N 50°49' W 001°06'0 0.0
2017-Jul-19 18:30N 50°49' W 001°06'0 0.0
2017-Jul-19 18:00N 50°49' W 001°06'0 0.0
2017-Jul-19 17:30N 50°49' W 001°06'0 0.8
2017-Jul-19 17:00N 50°49' W 001°06'510.3
2017-Jul-19 16:30N 50°44' W 001°04'714.2
2017-Jul-19 15:59N 50°37' W 001°08'1721.9
2017-Jul-19 15:13N 50°23' W 001°23'421.5
2017-Jul-19 15:01N 50°20' W 001°28'1121.4
2017-Jul-19 14:31N 50°11' W 001°37'1121.2
2017-Jul-19 14:00N 50°01' W 001°45'1121.1
2017-Jul-19 13:30N 49°53' W 001°54'1221.7
2017-Jul-19 12:57N 49°43' W 002°04'64 9.8
2017-Jul-19 06:25N 48°38' W 002°02'2 3.5
2017-Jul-19 05:44N 48°40' W 002°05'5312.6
2017-Jul-19 01:31N 49°33' W 002°10'0 9.7
2017-Jul-19 01:29N 49°33' W 002°10'1410.9
2017-Jul-19 00:14N 49°46' W 002°01'314.7
2017-Jul-19 00:01N 49°48' W 001°58'815.9
2017-Jul-18 23:30N 49°54' W 001°50'816.8
2017-Jul-18 23:00N 50°01' W 001°43'917.3
2017-Jul-18 22:31N 50°09' W 001°37'816.6
2017-Jul-18 22:00N 50°16' W 001°30'1716.3
2017-Jul-18 20:57N 50°30' W 001°15'717.0
2017-Jul-18 20:30N 50°36' W 001°08'713.9
2017-Jul-18 20:01N 50°42' W 001°03'612.6
2017-Jul-18 19:30N 50°48' W 001°07'1 1.8
2017-Jul-18 19:00N 50°49' W 001°06'0 0.0
2017-Jul-18 18:30N 50°49' W 001°06'0 0.0
2017-Jul-18 17:59N 50°49' W 001°06'0 0.0
2017-Jul-18 17:30N 50°49' W 001°06'0 0.0
2017-Jul-18 17:00N 50°49' W 001°06'4 7.4
2017-Jul-18 16:31N 50°45' W 001°05'612.2
2017-Jul-18 16:00N 50°39' W 001°05'1318.9
2017-Jul-18 15:20N 50°28' W 001°17'618.1
2017-Jul-18 15:00N 50°23' W 001°21'1717.5
2017-Jul-18 14:01N 50°09' W 001°36'917.6
2017-Jul-18 13:31N 50°01' W 001°44'917.9
2017-Jul-18 13:00N 49°54' W 001°52'1820.8
2017-Jul-18 12:07N 49°38' W 002°07'920.4
2017-Jul-18 11:39N 49°30' W 002°13'419.5
2017-Jul-18 11:27N 49°26' W 002°15'1019.4
2017-Jul-18 10:57N 49°17' W 002°22'1118.8
2017-Jul-18 10:21N 49°06' W 002°22'717.7
2017-Jul-18 09:57N 48°59' W 002°22'2116.6
2017-Jul-18 08:40N 48°40' W 002°05'3 4.5
2017-Jul-18 07:58N 48°38' W 002°02'0 0.0
2017-Jul-18 07:22N 48°38' W 002°02'0 0.0
2017-Jul-18 06:58N 48°38' W 002°02'34 9.6
2017-Jul-18 03:24N 49°10' W 002°23'614.9
2017-Jul-18 02:59N 49°16' W 002°22'714.5
2017-Jul-18 02:28N 49°23' W 002°17'613.7
2017-Jul-18 02:00N 49°29' W 002°13'713.7
2017-Jul-18 01:30N 49°35' W 002°09'612.7
2017-Jul-18 01:00N 49°41' W 002°05'611.2
2017-Jul-18 00:30N 49°45' W 002°00'713.1
2017-Jul-18 00:00N 49°51' W 001°55'714.7
2017-Jul-17 23:30N 49°57' W 001°49'815.5
2017-Jul-17 23:00N 50°04' W 001°44'816.0
2017-Jul-17 22:30N 50°11' W 001°36'816.3
2017-Jul-17 22:00N 50°17' W 001°29'816.6
2017-Jul-17 21:30N 50°24' W 001°21'816.7
2017-Jul-17 21:00N 50°31' W 001°13'917.3
2017-Jul-17 20:30N 50°37' W 001°04'612.7
2017-Jul-17 20:00N 50°44' W 001°03'510.5
2017-Jul-17 19:30N 50°48' W 001°07'1 1.6
2017-Jul-17 18:58N 50°49' W 001°06'0 0.0
2017-Jul-17 18:30N 50°49' W 001°06'0 0.0
2017-Jul-17 17:58N 50°49' W 001°06'0 0.0
2017-Jul-17 17:31N 50°49' W 001°06'3 5.4
2017-Jul-17 17:01N 50°46' W 001°05'814.9
2017-Jul-17 16:30N 50°38' W 001°06'918.2
2017-Jul-17 16:00N 50°31' W 001°14'918.6
2017-Jul-17 15:30N 50°23' W 001°21'1019.0
2017-Jul-17 15:00N 50°15' W 001°29'1019.3
2017-Jul-17 14:30N 50°07' W 001°37'1019.4
2017-Jul-17 14:00N 49°59' W 001°45'1019.9
2017-Jul-17 13:30N 49°51' W 001°55'1320.3
2017-Jul-17 12:53N 49°39' W 002°01'4317.9
2017-Jul-17 10:29N 48°56' W 001°58'17 4.7
2017-Jul-17 06:55N 48°40' W 002°04'715.1
2017-Jul-17 06:28N 48°45' W 002°09'510.6
2017-Jul-17 05:58N 48°51' W 002°09'1012.7
2017-Jul-17 05:12N 48°56' W 002°21'715.5
2017-Jul-17 04:43N 49°04' W 002°22'2415.1
2017-Jul-17 03:09N 49°27' W 002°13'215.0
2017-Jul-17 03:00N 49°29' W 002°12'1414.6
2017-Jul-17 02:01N 49°42' W 002°03'112.7
2017-Jul-17 01:57N 49°43' W 002°03'612.7
2017-Jul-17 01:30N 49°48' W 001°58'612.9
2017-Jul-17 01:00N 49°53' W 001°53'713.7
2017-Jul-17 00:30N 49°59' W 001°47'612.7
2017-Jul-17 00:00N 50°04' W 001°41'713.1
2017-Jul-16 23:30N 50°09' W 001°35'612.7
2017-Jul-16 23:00N 50°14' W 001°29'714.5
2017-Jul-16 22:30N 50°20' W 001°22'814.4
2017-Jul-16 21:57N 50°26' W 001°15'715.4
2017-Jul-16 21:30N 50°32' W 001°08'815.6
2017-Jul-16 21:01N 50°38' W 001°01'611.3
2017-Jul-16 20:31N 50°44' W 001°02'611.2
2017-Jul-16 20:01N 50°48' W 001°07'1 1.6
2017-Jul-16 19:29N 50°49' W 001°06'0 0.0
2017-Jul-16 18:58N 50°49' W 001°06'0 0.0
2017-Jul-16 18:29N 50°49' W 001°06'0 0.0
2017-Jul-16 17:58N 50°49' W 001°06'0 0.0
2017-Jul-16 17:28N 50°49' W 001°06'0 0.2
2017-Jul-16 17:01N 50°49' W 001°06'510.9
2017-Jul-16 16:31N 50°43' W 001°03'915.0
2017-Jul-16 15:55N 50°35' W 001°09'717.5
2017-Jul-16 15:30N 50°29' W 001°15'917.8
2017-Jul-16 15:00N 50°22' W 001°23'918.2
2017-Jul-16 14:31N 50°14' W 001°30'918.3
2017-Jul-16 14:01N 50°06' W 001°36'918.7
2017-Jul-16 13:31N 49°58' W 001°43'1019.4
2017-Jul-16 13:01N 49°50' W 001°53'1320.5
2017-Jul-16 12:22N 49°38' W 002°01'5619.1
2017-Jul-16 09:27N 48°42' W 002°05'5 1.9
2017-Jul-16 06:59N 48°38' W 002°02'0 0.3
2017-Jul-16 06:28N 48°39' W 002°02'715.1
2017-Jul-16 06:01N 48°44' W 002°08'815.8
2017-Jul-16 05:31N 48°50' W 002°16'713.8
2017-Jul-16 05:00N 48°56' W 002°21'612.2
2017-Jul-16 04:30N 49°02' W 002°22'712.5
2017-Jul-16 03:54N 49°10' W 002°22'712.1
2017-Jul-16 03:22N 49°16' W 002°21'612.3
2017-Jul-16 02:54N 49°22' W 002°19'614.6
2017-Jul-16 02:30N 49°27' W 002°14'714.8
2017-Jul-16 02:00N 49°34' W 002°10'1413.5
2017-Jul-16 00:59N 49°46' W 002°00'611.5
2017-Jul-16 00:31N 49°50' W 001°55'612.2
2017-Jul-16 00:00N 49°54' W 001°48'713.2
2017-Jul-15 23:31N 50°00' W 001°44'713.0
2017-Jul-15 23:00N 50°06' W 001°38'713.7
2017-Jul-15 22:30N 50°11' W 001°31'814.2
2017-Jul-15 21:56N 50°18' W 001°24'714.6
2017-Jul-15 21:29N 50°23' W 001°18'714.7
2017-Jul-15 21:01N 50°29' W 001°12'715.0
2017-Jul-15 20:31N 50°35' W 001°05'815.2
2017-Jul-15 20:01N 50°41' W 000°58'713.8
2017-Jul-15 19:30N 50°46' W 001°06'2 3.9
2017-Jul-15 18:55N 50°49' W 001°06'0 0.0
2017-Jul-15 18:28N 50°49' W 001°06'0 0.0
2017-Jul-15 17:58N 50°49' W 001°06'0 0.0
2017-Jul-15 17:28N 50°49' W 001°06'0 0.0
2017-Jul-15 17:00N 50°49' W 001°06'3 6.7
2017-Jul-15 16:30N 50°45' W 001°05'714.5
2017-Jul-15 16:00N 50°38' W 001°06'714.6
2017-Jul-15 15:31N 50°31' W 001°11'815.0
2017-Jul-15 15:00N 50°24' W 001°15'1616.3
2017-Jul-15 14:01N 50°11' W 001°29'917.6
2017-Jul-15 13:30N 50°04' W 001°38'917.8
2017-Jul-15 13:00N 49°57' W 001°45'918.8
2017-Jul-15 12:31N 49°49' W 001°54'1019.8
2017-Jul-15 12:00N 49°40' W 002°01'1020.3
2017-Jul-15 11:30N 49°30' W 001°59'1420.1
2017-Jul-15 10:49N 49°17' W 001°53'619.4
2017-Jul-15 10:30N 49°11' W 001°52'918.9
2017-Jul-15 10:01N 49°02' W 001°51'1020.2
2017-Jul-15 09:30N 48°53' W 001°59'1019.9
2017-Jul-15 09:01N 48°43' W 002°02'5 9.0
2017-Jul-15 08:29N 48°38' W 002°02'0 0.0
2017-Jul-15 07:56N 48°38' W 002°02'0 0.0
2017-Jul-15 07:29N 48°38' W 002°02'0 0.0
2017-Jul-15 06:59N 48°38' W 002°02'0 0.0
2017-Jul-15 06:29N 48°38' W 002°02'0 0.4
2017-Jul-15 06:00N 48°38' W 002°02'714.5
2017-Jul-15 05:30N 48°45' W 002°08'1119.9
2017-Jul-15 04:58N 48°53' W 002°19'713.8
2017-Jul-15 04:26N 48°60' W 002°22'612.5
2017-Jul-15 03:57N 49°06' W 002°23'712.7
2017-Jul-15 03:24N 49°13' W 002°22'613.0
2017-Jul-15 02:55N 49°19' W 002°21'815.8
2017-Jul-15 02:24N 49°26' W 002°15'2315.1
2017-Jul-15 00:54N 49°46' W 001°60'512.7
2017-Jul-15 00:30N 49°50' W 001°55'613.1
2017-Jul-15 00:00N 49°55' W 001°48'713.1
2017-Jul-14 23:31N 50°01' W 001°42'713.2
2017-Jul-14 23:00N 50°06' W 001°37'713.5
2017-Jul-14 22:30N 50°12' W 001°31'713.9
2017-Jul-14 22:00N 50°17' W 001°25'714.3
2017-Jul-14 21:30N 50°23' W 001°18'714.4
2017-Jul-14 21:01N 50°29' W 001°12'714.7
2017-Jul-14 20:31N 50°35' W 001°06'815.2
2017-Jul-14 20:01N 50°41' W 000°58'714.1
2017-Jul-14 19:30N 50°46' W 001°06'2 4.3
2017-Jul-14 18:59N 50°49' W 001°06'0 0.0
2017-Jul-14 18:29N 50°49' W 001°06'0 0.0
2017-Jul-14 17:59N 50°49' W 001°06'0 0.0
2017-Jul-14 17:29N 50°49' W 001°06'0 0.7
2017-Jul-14 17:01N 50°49' W 001°06'5 9.5
2017-Jul-14 16:31N 50°44' W 001°04'714.2
2017-Jul-14 16:00N 50°37' W 001°07'814.9
2017-Jul-14 15:30N 50°31' W 001°13'1015.4
2017-Jul-14 14:51N 50°22' W 001°20'515.9
2017-Jul-14 14:30N 50°17' W 001°24'816.1
2017-Jul-14 14:01N 50°10' W 001°31'816.4
2017-Jul-14 13:30N 50°03' W 001°38'816.8
2017-Jul-14 13:00N 49°56' W 001°45'917.5
2017-Jul-14 12:30N 49°49' W 001°53'1219.4
2017-Jul-14 11:53N 49°38' W 002°01'2519.4
2017-Jul-14 10:36N 49°15' W 001°51'420.3
2017-Jul-14 10:23N 49°10' W 001°52'1018.6
2017-Jul-14 09:51N 49°00' W 001°53'1219.9
2017-Jul-14 09:15N 48°49' W 002°01'519.7
2017-Jul-14 09:00N 48°45' W 002°02'6 2.1
2017-Jul-14 06:01N 48°39' W 002°02'0 1.3
2017-Jul-14 06:00N 48°38' W 002°02'714.0
2017-Jul-14 05:30N 48°44' W 002°08'917.4
2017-Jul-14 05:00N 48°51' W 002°17'816.3
2017-Jul-14 04:30N 48°58' W 002°22'  

Dump ship's entire track history